createdAt,value
2017-11-18T00:01:11.421Z,34.17
2017-11-18T00:03:39.005Z,31.53
2017-11-18T00:06:07.385Z,33.20
2017-11-18T00:08:34.960Z,34.57
2017-11-18T00:11:04.612Z,33.20
2017-11-18T00:13:33.009Z,34.67
2017-11-18T00:16:05.012Z,35.40
2017-11-18T00:18:32.594Z,31.20
2017-11-18T00:21:01.735Z,31.03
2017-11-18T00:23:30.136Z,32.63
2017-11-18T00:34:40.859Z,29.13
2017-11-18T00:37:12.226Z,31.00
2017-11-18T00:39:42.633Z,27.50
2017-11-18T00:42:11.675Z,28.33
2017-11-18T00:47:28.923Z,22.73
2017-11-18T00:50:15.690Z,32.77
2017-11-18T00:52:48.099Z,25.83
2017-11-18T00:55:22.344Z,28.07
2017-11-18T00:57:57.934Z,24.13
2017-11-18T01:00:27.531Z,24.20
2017-11-18T01:03:03.934Z,29.50
2017-11-18T01:05:40.919Z,24.07
2017-11-18T01:08:10.137Z,22.23
2017-11-18T01:10:40.134Z,26.03
2017-11-18T01:13:24.896Z,25.47
2017-11-18T01:15:58.088Z,25.80
2017-11-18T01:18:26.629Z,23.53
2017-11-18T01:20:54.196Z,23.87
2017-11-18T01:23:37.666Z,20.87
2017-11-18T01:26:14.489Z,25.63
2017-11-18T01:28:45.890Z,24.97
2017-11-18T01:33:59.222Z,22.20
2017-11-18T01:36:42.073Z,21.80
2017-11-18T01:39:14.692Z,24.73
2017-11-18T01:41:49.859Z,40.00
2017-11-18T01:44:32.679Z,57.03
2017-11-18T01:49:47.060Z,56.77
2017-11-18T01:52:30.525Z,65.63
2017-11-18T01:55:12.830Z,60.77
2017-11-18T01:57:48.586Z,56.03
2017-11-18T02:00:25.053Z,56.90
2017-11-18T02:42:20.125Z,24.20
2017-11-18T02:44:53.001Z,25.63
2017-11-18T02:47:26.047Z,24.03
2017-11-18T02:52:38.962Z,26.70
2017-11-18T02:55:18.997Z,23.27
2017-11-18T02:57:57.531Z,20.00
2017-11-18T03:00:30.520Z,21.37
2017-11-18T03:03:04.552Z,22.53
2017-11-18T03:05:35.122Z,22.40
2017-11-18T03:08:09.945Z,22.10
2017-11-18T03:10:42.958Z,22.80
2017-11-18T03:13:19.083Z,26.53
2017-11-18T03:16:21.622Z,27.50
2017-11-18T03:18:58.985Z,19.80
2017-11-18T03:21:32.650Z,24.67
2017-11-18T03:24:09.673Z,19.07
2017-11-18T03:26:40.590Z,20.50
2017-11-18T03:32:01.039Z,19.70
2017-11-18T03:34:33.769Z,24.07
2017-11-18T03:37:04.942Z,20.23
2017-11-18T03:39:39.685Z,20.73
2017-11-18T03:42:27.518Z,23.43
2017-11-18T03:47:54.310Z,22.50
2017-11-18T03:50:24.980Z,17.70
2017-11-18T03:53:11.432Z,19.97
2017-11-18T04:01:40.240Z,21.10
2017-11-18T04:04:12.627Z,20.93
2017-11-18T04:06:42.811Z,20.40
2017-11-18T04:09:11.907Z,21.57
2017-11-18T04:14:19.193Z,25.13
2017-11-18T04:16:51.326Z,24.40
2017-11-18T04:19:23.773Z,31.43
2017-11-18T04:21:56.759Z,20.60
2017-11-18T04:24:30.850Z,24.30
2017-11-18T04:26:59.831Z,21.47
2017-11-18T04:32:10.028Z,21.27
2017-11-18T04:34:39.284Z,20.00
2017-11-18T04:37:08.858Z,19.80
2017-11-18T04:39:40.276Z,25.93
2017-11-18T04:44:54.211Z,22.57
2017-11-18T04:47:23.719Z,21.93
2017-11-18T04:52:33.586Z,25.20
2017-11-18T04:55:05.449Z,24.10
2017-11-18T04:57:37.574Z,24.03
2017-11-18T05:00:19.738Z,21.20
2017-11-18T05:11:15.330Z,28.23
2017-11-18T05:13:46.418Z,27.23
2017-11-18T05:16:17.544Z,21.70
2017-11-18T05:18:48.555Z,28.73
2017-11-18T05:21:20.261Z,32.40
2017-11-18T05:23:52.896Z,37.50
2017-11-18T05:26:27.060Z,41.37
2017-11-18T05:29:13.804Z,39.43
2017-11-18T05:31:54.196Z,37.40
2017-11-18T05:37:29.881Z,45.20
2017-11-18T05:40:10.646Z,48.20
2017-11-18T05:42:42.668Z,44.93
2017-11-18T05:45:15.970Z,45.93
2017-11-18T05:47:46.859Z,33.50
2017-11-18T05:56:09.849Z,45.70
2017-11-18T05:58:49.961Z,50.20
2017-11-18T06:01:33.167Z,45.77
2017-11-18T06:04:09.864Z,45.17
2017-11-18T06:09:25.133Z,53.00
2017-11-18T07:32:45.693Z,31.47
2017-11-18T07:37:54.149Z,35.50
2017-11-18T07:40:23.813Z,35.30
2017-11-18T07:45:34.758Z,34.70
2017-11-18T07:48:11.185Z,33.77
2017-11-18T07:50:38.954Z,35.20
2017-11-18T07:53:12.372Z,35.50
2017-11-18T07:55:47.099Z,38.23
2017-11-18T07:58:15.938Z,37.77
2017-11-18T08:00:45.945Z,33.50
2017-11-18T08:03:19.302Z,36.43
2017-11-18T08:05:47.435Z,34.33
2017-11-18T08:08:18.269Z,29.03
2017-11-18T08:10:46.999Z,26.97
2017-11-18T08:13:27.228Z,36.87
2017-11-18T08:15:59.332Z,35.40
2017-11-18T08:18:31.611Z,34.83
2017-11-18T08:21:02.997Z,35.23
2017-11-18T08:23:35.822Z,33.33
2017-11-18T08:26:06.303Z,32.30
2017-11-18T08:31:38.675Z,33.50
2017-11-18T08:34:10.618Z,40.33
2017-11-18T08:36:43.016Z,32.97
2017-11-18T08:39:11.364Z,24.97
2017-11-18T08:41:42.098Z,26.67
2017-11-18T08:44:12.965Z,41.67
2017-11-18T08:46:42.599Z,37.97
2017-11-18T08:49:12.320Z,41.63
2017-11-18T08:51:45.323Z,35.40
2017-11-18T08:54:16.982Z,39.20
2017-11-18T08:56:50.945Z,45.50
2017-11-18T09:02:12.351Z,38.90
2017-11-18T09:04:41.899Z,46.07
2017-11-18T09:07:13.904Z,42.20
2017-11-18T09:09:47.261Z,38.30
2017-11-18T09:12:21.302Z,37.27
2017-11-18T09:14:55.356Z,38.37
2017-11-18T09:17:29.249Z,41.40
2017-11-18T09:19:57.728Z,40.07
2017-11-18T09:22:33.922Z,36.80
2017-11-18T09:25:05.101Z,47.07
2017-11-18T09:27:34.825Z,40.77
2017-11-18T09:30:03.248Z,44.03
2017-11-18T09:32:34.484Z,45.03
2017-11-18T09:35:08.133Z,50.23
2017-11-18T09:40:13.301Z,57.93
2017-11-18T09:42:47.316Z,56.10
2017-11-18T09:45:14.976Z,60.27
2017-11-18T09:47:55.089Z,55.60
2017-11-18T09:50:23.436Z,64.27
2017-11-18T09:52:53.365Z,58.47
2017-11-18T09:55:21.864Z,65.63
2017-11-18T09:57:50.890Z,57.10
2017-11-18T10:00:22.008Z,68.33
2017-11-18T10:02:49.630Z,54.57
2017-11-18T10:05:22.456Z,60.97
2017-11-18T10:07:52.539Z,69.80
2017-11-18T10:10:22.877Z,65.10
2017-11-18T10:12:50.540Z,61.40
2017-11-18T10:15:19.465Z,48.80
2017-11-18T10:17:49.784Z,52.13
2017-11-18T10:20:19.198Z,66.23
2017-11-18T11:06:36.199Z,45.47
2017-11-18T11:09:08.485Z,43.20
2017-11-18T11:11:40.850Z,31.47
2017-11-18T11:14:14.197Z,38.97
2017-11-18T11:19:22.913Z,31.33
2017-11-18T11:21:55.278Z,33.77
2017-11-18T11:24:23.826Z,33.07
2017-11-18T11:26:52.308Z,31.93
2017-11-18T11:29:23.112Z,30.57
2017-11-18T11:31:55.042Z,38.00
2017-11-18T11:37:05.625Z,33.23
2017-11-18T11:39:35.208Z,36.00
2017-11-18T11:42:06.735Z,31.70
2017-11-18T11:44:36.478Z,35.03
2017-11-18T11:47:10.659Z,34.20
2017-11-18T11:49:42.325Z,34.60
2017-11-18T11:52:13.214Z,29.40
2017-11-18T11:54:43.854Z,22.77
2017-11-18T11:57:15.401Z,28.30
2017-11-18T11:59:44.948Z,21.27
2017-11-18T12:02:17.911Z,24.83
2017-11-18T12:04:47.588Z,20.80
2017-11-18T12:07:19.270Z,22.40
2017-11-18T12:15:11.380Z,33.03
2017-11-18T12:17:40.263Z,20.90
2017-11-18T12:20:17.389Z,22.07
2017-11-18T12:22:55.153Z,20.67
2017-11-18T12:25:29.638Z,19.00
2017-11-18T12:30:36.351Z,23.60
2017-11-18T12:33:12.448Z,18.67
2017-11-18T12:35:41.106Z,22.80
2017-11-18T12:40:53.673Z,24.87
2017-11-18T12:43:30.115Z,20.83
2017-11-18T12:45:59.506Z,19.17
2017-11-18T12:48:27.344Z,18.93
2017-11-18T12:51:05.110Z,20.63
2017-11-18T12:53:33.928Z,21.27
2017-11-18T12:56:08.902Z,17.30
2017-11-18T12:58:38.060Z,21.50
2017-11-18T13:01:05.618Z,35.70
2017-11-18T13:03:33.213Z,42.67
2017-11-18T13:06:04.363Z,21.73
2017-11-18T13:08:34.640Z,24.40
2017-11-18T13:11:02.200Z,33.47
2017-11-18T13:13:37.342Z,26.13
2017-11-18T13:16:07.678Z,20.67
2017-11-18T13:18:36.273Z,23.73
2017-11-18T13:21:05.636Z,19.27
2017-11-18T13:23:34.425Z,23.03
2017-11-18T13:26:07.354Z,19.17
2017-11-18T13:28:36.951Z,19.30
2017-11-18T13:31:05.501Z,18.60
2017-11-18T13:33:39.366Z,17.67
2017-11-18T13:36:16.247Z,18.10
2017-11-18T13:38:46.011Z,11.00
2017-11-18T13:41:15.107Z,13.60
2017-11-18T13:46:31.782Z,15.37
2017-11-18T13:49:00.251Z,14.70
2017-11-18T13:51:29.439Z,13.67
2017-11-18T13:53:57.012Z,12.43
2017-11-18T13:56:24.566Z,12.00
2017-11-18T13:58:53.118Z,12.90
2017-11-18T14:01:22.655Z,10.53
2017-11-18T14:03:51.053Z,12.43
2017-11-18T14:06:25.310Z,13.97
2017-11-18T14:08:54.398Z,17.00
2017-11-18T14:11:22.805Z,13.33
2017-11-18T14:13:51.253Z,13.27
2017-11-18T14:16:20.321Z,14.87
2017-11-18T14:18:48.064Z,11.70
2017-11-18T14:21:17.589Z,10.80
2017-11-18T14:23:46.320Z,11.73
2017-11-18T14:26:15.955Z,10.13
2017-11-18T14:28:51.515Z,9.90
2017-11-18T14:31:26.148Z,9.73
2017-11-18T14:33:55.114Z,12.03
2017-11-18T14:39:02.689Z,8.60
2017-11-18T14:41:39.481Z,7.53
2017-11-18T14:44:08.533Z,8.47
2017-11-18T14:46:38.583Z,8.70
2017-11-18T14:49:06.803Z,8.30
2017-11-18T14:51:43.352Z,8.17
2017-11-18T14:54:16.463Z,8.43
2017-11-18T14:56:49.210Z,8.80
2017-11-18T14:59:19.534Z,8.70
2017-11-18T15:01:47.676Z,8.13
2017-11-18T15:04:16.491Z,9.47
2017-11-18T15:06:44.982Z,8.67
2017-11-18T15:09:14.506Z,9.20
2017-11-18T15:11:45.814Z,8.60
2017-11-18T15:14:14.197Z,7.90
2017-11-18T15:19:50.277Z,10.53
2017-11-18T15:22:24.179Z,7.90
2017-11-18T15:24:59.355Z,7.73
2017-11-18T15:27:33.384Z,8.17
2017-11-18T15:33:22.985Z,7.87
2017-11-18T15:35:56.257Z,9.57
2017-11-18T15:38:30.532Z,8.70
2017-11-18T15:40:59.798Z,7.97
2017-11-18T15:43:42.399Z,8.50
2017-11-18T15:46:12.939Z,9.70
2017-11-18T15:48:47.120Z,19.20
2017-11-18T15:51:14.852Z,11.77
2017-11-18T15:53:49.669Z,7.23
2017-11-18T15:56:33.261Z,7.73
2017-11-18T15:59:13.726Z,7.43
2017-11-18T16:01:47.085Z,8.97
2017-11-18T16:04:20.570Z,7.70
2017-11-18T16:07:07.745Z,8.13
2017-11-18T16:09:35.430Z,8.93
2017-11-18T16:12:04.215Z,11.23
2017-11-18T16:14:31.853Z,8.63
2017-11-18T16:17:00.318Z,8.93
2017-11-18T16:19:29.560Z,9.60
2017-11-18T16:21:57.925Z,8.33
2017-11-18T16:24:25.562Z,11.27
2017-11-18T16:26:53.288Z,8.00
2017-11-18T16:29:21.045Z,8.40
2017-11-18T16:31:48.632Z,10.23
2017-11-18T16:34:16.613Z,10.00
2017-11-18T16:36:44.243Z,10.20
2017-11-18T16:39:13.255Z,12.90
2017-11-18T16:41:40.863Z,8.80
2017-11-18T16:44:08.573Z,8.80
2017-11-18T16:46:36.199Z,11.73
2017-11-18T16:49:03.951Z,11.20
2017-11-18T16:51:31.648Z,9.20
2017-11-18T16:53:59.285Z,7.63
2017-11-18T16:56:28.715Z,7.73
2017-11-18T16:58:57.288Z,10.67
2017-11-18T17:01:25.069Z,11.60
2017-11-18T17:03:54.466Z,9.10
2017-11-18T17:06:22.157Z,10.70
2017-11-18T17:08:50.426Z,12.47
2017-11-18T17:11:18.882Z,8.60
2017-11-18T17:13:46.644Z,10.67
2017-11-18T17:16:14.232Z,8.93
2017-11-18T17:18:41.941Z,12.80
2017-11-18T17:21:09.494Z,11.40
2017-11-18T17:23:38.702Z,12.60
2017-11-18T17:26:07.236Z,11.70
2017-11-18T17:28:34.890Z,12.47
2017-11-18T17:31:02.644Z,11.13
2017-11-18T17:33:33.795Z,13.07
2017-11-18T17:36:02.435Z,9.50
2017-11-18T17:38:30.109Z,9.83
2017-11-18T17:40:59.312Z,14.60
2017-11-18T17:43:26.995Z,12.27
2017-11-18T17:45:54.734Z,9.07
2017-11-18T17:48:23.379Z,13.13
2017-11-18T17:50:52.005Z,15.03
2017-11-18T17:53:19.700Z,9.93
2017-11-18T17:55:47.452Z,10.80
2017-11-18T17:58:16.073Z,9.10
2017-11-18T18:00:44.118Z,10.17
2017-11-18T18:03:12.412Z,9.40
2017-11-18T18:05:40.132Z,9.50
2017-11-18T18:08:08.281Z,12.70
2017-11-18T18:10:35.881Z,10.70
2017-11-18T18:13:04.471Z,10.27
2017-11-18T18:15:32.890Z,13.60
2017-11-18T18:18:00.664Z,10.83
2017-11-18T18:20:28.266Z,10.93
2017-11-18T18:22:56.652Z,10.10
2017-11-18T18:25:24.222Z,13.57
2017-11-18T18:27:51.983Z,11.97
2017-11-18T18:30:19.661Z,14.03
2017-11-18T18:32:47.430Z,16.13
2017-11-18T18:35:15.158Z,12.03
2017-11-18T18:37:43.418Z,13.47
2017-11-18T18:40:11.181Z,15.23
2017-11-18T18:42:38.842Z,11.20
2017-11-18T18:45:06.443Z,13.20
2017-11-18T18:47:34.077Z,11.93
2017-11-18T18:50:01.767Z,12.17
2017-11-18T18:52:29.386Z,14.10
2017-11-18T18:54:58.261Z,11.80
2017-11-18T18:57:26.072Z,11.47
2017-11-18T18:59:53.982Z,24.80
2017-11-18T19:02:21.795Z,14.60
2017-11-18T19:04:49.492Z,14.73
2017-11-18T19:07:17.929Z,17.33
2017-11-18T19:09:46.414Z,17.13
2017-11-18T19:12:14.960Z,15.60
2017-11-18T19:14:42.667Z,16.00
2017-11-18T19:17:11.699Z,15.03
2017-11-18T19:19:39.397Z,18.40
2017-11-18T19:22:07.882Z,11.43
2017-11-18T19:24:36.624Z,10.47
2017-11-18T19:27:04.186Z,14.67
2017-11-18T19:29:32.074Z,18.07
2017-11-18T19:32:00.529Z,16.23
2017-11-18T19:34:28.848Z,16.50
2017-11-18T19:36:57.367Z,14.23
2017-11-18T19:39:26.187Z,13.83
2017-11-18T19:41:55.469Z,14.83
2017-11-18T19:44:23.233Z,13.60
2017-11-18T19:46:52.815Z,15.20
2017-11-18T19:49:22.294Z,12.07
2017-11-18T19:51:49.898Z,13.70
2017-11-18T19:54:17.485Z,14.97
2017-11-18T19:56:45.126Z,13.47
2017-11-18T19:59:12.917Z,12.83
2017-11-18T20:01:41.521Z,15.20
2017-11-18T20:04:09.878Z,11.60
2017-11-18T20:06:39.008Z,12.47
2017-11-18T20:09:06.663Z,14.10
2017-11-18T20:11:34.285Z,11.50
2017-11-18T20:14:03.804Z,12.00
2017-11-18T20:16:33.156Z,17.70
2017-11-18T20:19:01.265Z,11.30
2017-11-18T20:21:28.922Z,13.73
2017-11-18T20:23:57.769Z,14.13
2017-11-18T20:26:26.306Z,12.40
2017-11-18T20:28:54.891Z,9.20
2017-11-18T20:31:23.661Z,12.07
2017-11-18T20:33:53.347Z,13.90
2017-11-18T20:36:22.557Z,12.23
2017-11-18T20:38:50.213Z,12.30
2017-11-18T20:41:18.356Z,10.30
2017-11-18T20:43:46.091Z,12.43
2017-11-18T20:46:14.252Z,12.70
2017-11-18T20:48:42.656Z,10.43
2017-11-18T20:51:11.419Z,9.00
2017-11-18T20:53:39.799Z,10.03
2017-11-18T20:56:09.306Z,12.97
2017-11-18T20:58:37.645Z,15.10
2017-11-18T21:01:06.451Z,10.30
2017-11-18T21:03:36.076Z,11.27
2017-11-18T21:06:04.274Z,11.70
2017-11-18T21:08:32.068Z,8.03
2017-11-18T21:10:59.713Z,9.00
2017-11-18T21:13:27.460Z,8.50
2017-11-18T21:15:55.160Z,10.27
2017-11-18T21:18:23.929Z,9.97
2017-11-18T21:20:52.333Z,7.97
2017-11-18T21:23:21.205Z,9.93
2017-11-18T21:25:49.012Z,14.50
2017-11-18T21:28:16.821Z,11.20
2017-11-18T21:30:44.731Z,8.40
2017-11-18T21:33:12.404Z,7.70
2017-11-18T21:35:40.332Z,8.93
2017-11-18T21:38:08.184Z,9.70
2017-11-18T21:40:35.877Z,10.93
2017-11-18T21:43:03.559Z,8.13
2017-11-18T21:45:31.166Z,10.00
2017-11-18T21:47:59.669Z,13.93
2017-11-18T21:50:27.249Z,12.30
2017-11-18T21:52:55.109Z,18.53
2017-11-18T21:55:22.916Z,8.87
2017-11-18T21:57:50.615Z,9.73
2017-11-18T22:00:18.354Z,10.80
2017-11-18T22:02:46.125Z,14.07
2017-11-18T22:05:13.757Z,9.33
2017-11-18T22:07:42.385Z,11.57
2017-11-18T22:10:10.200Z,14.40
2017-11-18T22:12:38.832Z,8.40
2017-11-18T22:15:06.415Z,11.03
2017-11-18T22:17:34.012Z,8.87
2017-11-18T22:20:02.406Z,13.40
2017-11-18T22:22:30.842Z,13.53
2017-11-18T22:24:59.410Z,11.70
2017-11-18T22:27:27.118Z,11.40
2017-11-18T22:29:54.967Z,14.47
2017-11-18T22:32:22.798Z,13.93
2017-11-18T22:34:52.083Z,13.77
2017-11-18T22:37:24.687Z,9.47
2017-11-18T22:39:52.334Z,14.70
2017-11-18T22:42:20.758Z,10.77
2017-11-18T22:44:49.419Z,11.63
2017-11-18T22:47:17.212Z,13.60
2017-11-18T22:49:47.295Z,10.40
2017-11-18T22:52:15.156Z,9.13
2017-11-18T22:54:43.113Z,11.43
2017-11-18T22:57:11.788Z,12.33
2017-11-18T22:59:41.405Z,10.53
2017-11-18T23:02:09.725Z,15.50
2017-11-18T23:04:37.552Z,8.37
2017-11-18T23:07:07.316Z,12.93
2017-11-18T23:09:36.167Z,9.50
2017-11-18T23:12:03.907Z,10.00
2017-11-18T23:14:32.242Z,11.60
2017-11-18T23:17:00.412Z,11.23
2017-11-18T23:19:28.069Z,8.03
2017-11-18T23:21:56.620Z,11.67
2017-11-18T23:24:24.156Z,10.40
2017-11-18T23:26:52.293Z,9.83
2017-11-18T23:29:21.632Z,13.93
2017-11-18T23:31:50.831Z,8.97
2017-11-18T23:34:18.445Z,9.13
2017-11-18T23:36:46.575Z,7.93
2017-11-18T23:39:15.000Z,14.50
2017-11-18T23:41:43.342Z,11.27
2017-11-18T23:44:12.303Z,8.60
2017-11-18T23:46:39.877Z,20.87
2017-11-18T23:49:07.457Z,9.27
2017-11-18T23:51:35.798Z,7.50
2017-11-18T23:54:04.152Z,14.40
2017-11-18T23:56:31.695Z,12.93
2017-11-18T23:59:00.265Z,13.13
